createdAt,value
2022-10-03T00:03:05.274Z,1517.55429
2022-10-03T00:18:07.179Z,1520.99936
2022-10-03T00:33:09.025Z,1510.71075
2022-10-03T00:48:10.888Z,1488.88941
2022-10-03T01:03:12.747Z,1430.09657
2022-10-03T01:18:14.579Z,1395.83385
2022-10-03T01:33:16.392Z,1361.78913
2022-10-03T01:48:18.219Z,1348.08904
2022-10-03T02:03:20.063Z,1334.66186
2022-10-03T02:18:21.896Z,1322.80406
2022-10-03T02:33:23.698Z,1322.80406
2022-10-03T02:48:31.927Z,1322.80406
2022-10-03T03:03:34.329Z,1391.48546
2022-10-03T03:18:36.178Z,1365.95362
2022-10-03T03:33:38.012Z,1304.77169
2022-10-03T03:48:39.826Z,1278.62646
2022-10-03T04:03:41.660Z,1250.00051
2022-10-03T04:18:43.491Z,1227.10673
2022-10-03T04:33:45.319Z,1480.6635
2022-10-03T04:48:47.124Z,1245.35367
2022-10-03T05:03:48.981Z,1151.20325
2022-10-03T05:18:50.808Z,1112.95731
2022-10-03T05:33:52.653Z,1086.78071
2022-10-03T05:48:54.504Z,832.29863
2022-10-03T06:03:56.334Z,818.07131
2022-10-03T06:18:58.147Z,845.96009
2022-10-03T06:34:00.016Z,864.51663
2022-10-03T06:49:01.875Z,894.52653
2022-10-03T07:04:03.710Z,935.10168
2022-10-03T07:19:05.569Z,973.83771
2022-10-03T07:34:07.355Z,986.74571
2022-10-03T07:49:09.225Z,991.12476
2022-10-03T08:04:11.085Z,972.4243
2022-10-03T08:19:12.942Z,985.29462
2022-10-03T08:34:14.776Z,1400.2095
2022-10-03T08:49:16.599Z,1514.12479
2022-10-03T09:04:18.455Z,1596.1887
2022-10-03T09:19:20.258Z,1677.09686
2022-10-03T09:34:22.103Z,1726.80462
2022-10-03T09:49:23.957Z,1780.73139
2022-10-03T10:04:50.142Z,1833.10583
2022-10-03T10:19:55.324Z,1870.20287
2022-10-03T10:34:57.178Z,1882.02297
2022-10-03T10:49:59.002Z,1872.81671
2022-10-03T11:05:00.961Z,1835.61693
2022-10-03T11:20:02.865Z,1819.41665
2022-10-03T11:35:04.684Z,1838.13493
2022-10-03T11:50:06.541Z,1863.70008
2022-10-03T12:05:08.397Z,1864.99702
2022-10-03T12:20:10.218Z,1882.02297
2022-10-03T12:35:12.039Z,1903.40959
2022-10-03T12:50:13.873Z,1932.22833
2022-10-03T13:05:15.708Z,1951.93058
2022-10-03T13:20:17.556Z,1849.55191
2022-10-03T13:35:19.413Z,1585.79931
2022-10-03T13:50:21.236Z,1572.77045
2022-10-03T14:05:23.125Z,1587.67822
2022-10-03T14:20:24.984Z,1613.48634
2022-10-03T14:35:26.845Z,1651.26359
2022-10-03T14:50:28.660Z,1694.05865
2022-10-03T15:05:30.506Z,1756.22592
2022-10-03T15:20:32.334Z,1798.65821
2022-10-03T15:35:34.143Z,1840.65984
2022-10-03T15:50:36.006Z,1885.99628
2022-10-03T16:05:37.862Z,1898.01749
2022-10-03T16:20:39.734Z,1944.8481
2022-10-03T16:35:41.572Z,1799.86618
2022-10-03T16:50:43.427Z,1712.46056
2022-10-03T17:05:45.261Z,1740.26024
2022-10-03T17:20:47.101Z,1787.85907
2022-10-03T17:35:48.964Z,1840.65984
2022-10-03T17:50:50.789Z,1833.10583
2022-10-03T18:05:52.600Z,1854.67178
2022-10-03T18:20:54.457Z,1834.36052
2022-10-03T18:35:56.324Z,1828.10418
2022-10-03T18:50:58.181Z,1748.20663
2022-10-03T19:06:00.024Z,1729.03275
2022-10-03T19:21:01.845Z,1689.78612
2022-10-03T19:36:03.662Z,1658.41634
2022-10-03T19:51:05.504Z,1660.47137
2022-10-03T20:06:07.334Z,1765.48139
2022-10-03T20:21:09.156Z,1734.62833
2022-10-03T20:36:11.002Z,1844.46024
2022-10-03T20:51:12.862Z,1928.05805
2022-10-03T21:06:15.010Z,1954.77803
2022-10-03T21:21:17.593Z,1942.02948
2022-10-03T21:36:19.457Z,1898.01749
2022-10-03T21:51:21.236Z,1895.33289
2022-10-03T22:06:23.063Z,1826.85803
2022-10-03T22:21:24.915Z,1807.14817
2022-10-03T22:36:26.741Z,1727.91797
2022-10-03T22:51:28.565Z,912.18566
2022-10-03T23:06:30.400Z,774.56697
2022-10-03T23:21:32.227Z,771.44552
2022-10-03T23:36:34.076Z,777.26268
2022-10-03T23:51:35.913Z,790.56097
